sensor_id;sensor_type;location;lat;lon;timestamp;P1;durP1;ratioP1;P2;durP2;ratioP2
71095;SDS011;58753;49.440;11.126;2023-08-01T00:01:33;6.13;;;2.40;;
71095;SDS011;58753;49.440;11.126;2023-08-01T00:03:59;6.00;;;2.10;;
71095;SDS011;58753;49.440;11.126;2023-08-01T00:06:29;7.68;;;2.67;;
71095;SDS011;58753;49.440;11.126;2023-08-01T00:08:57;4.97;;;2.28;;
71095;SDS011;58753;49.440;11.126;2023-08-01T00:11:24;4.87;;;2.00;;
71095;SDS011;58753;49.440;11.126;2023-08-01T00:13:50;4.63;;;2.30;;
71095;SDS011;58753;49.440;11.126;2023-08-01T00:16:15;5.33;;;2.00;;
71095;SDS011;58753;49.440;11.126;2023-08-01T00:18:41;8.63;;;2.10;;
71095;SDS011;58753;49.440;11.126;2023-08-01T00:21:06;5.75;;;2.30;;
71095;SDS011;58753;49.440;11.126;2023-08-01T00:23:35;6.97;;;2.22;;
71095;SDS011;58753;49.440;11.126;2023-08-01T00:26:02;6.17;;;1.87;;
71095;SDS011;58753;49.440;11.126;2023-08-01T00:28:29;4.65;;;2.33;;
71095;SDS011;58753;49.440;11.126;2023-08-01T00:31:01;5.93;;;2.43;;
71095;SDS011;58753;49.440;11.126;2023-08-01T00:33:38;4.70;;;2.05;;
71095;SDS011;58753;49.440;11.126;2023-08-01T00:36:03;6.28;;;3.08;;
71095;SDS011;58753;49.440;11.126;2023-08-01T00:38:33;6.95;;;2.30;;
71095;SDS011;58753;49.440;11.126;2023-08-01T00:41:01;6.30;;;2.20;;
71095;SDS011;58753;49.440;11.126;2023-08-01T00:43:26;4.17;;;2.20;;
71095;SDS011;58753;49.440;11.126;2023-08-01T00:45:56;6.18;;;2.17;;
71095;SDS011;58753;49.440;11.126;2023-08-01T00:48:28;6.27;;;1.97;;
71095;SDS011;58753;49.440;11.126;2023-08-01T00:50:55;5.88;;;2.28;;
71095;SDS011;58753;49.440;11.126;2023-08-01T00:53:21;5.95;;;2.22;;
71095;SDS011;58753;49.440;11.126;2023-08-01T00:55:49;5.30;;;2.38;;
71095;SDS011;58753;49.440;11.126;2023-08-01T00:58:17;5.53;;;1.80;;
71095;SDS011;58753;49.440;11.126;2023-08-01T01:00:42;3.85;;;2.00;;
71095;SDS011;58753;49.440;11.126;2023-08-01T01:03:08;4.07;;;1.90;;
71095;SDS011;58753;49.440;11.126;2023-08-01T01:05:35;7.10;;;2.00;;
71095;SDS011;58753;49.440;11.126;2023-08-01T01:08:03;5.32;;;1.77;;
71095;SDS011;58753;49.440;11.126;2023-08-01T01:10:30;3.80;;;2.00;;
71095;SDS011;58753;49.440;11.126;2023-08-01T01:12:55;5.03;;;1.77;;
71095;SDS011;58753;49.440;11.126;2023-08-01T01:15:21;5.50;;;1.85;;
71095;SDS011;58753;49.440;11.126;2023-08-01T01:17:46;3.63;;;1.67;;
71095;SDS011;58753;49.440;11.126;2023-08-01T01:20:14;7.20;;;1.73;;
71095;SDS011;58753;49.440;11.126;2023-08-01T01:22:39;3.57;;;1.87;;
71095;SDS011;58753;49.440;11.126;2023-08-01T01:25:06;5.22;;;1.88;;
71095;SDS011;58753;49.440;11.126;2023-08-01T01:27:36;3.58;;;1.55;;
71095;SDS011;58753;49.440;11.126;2023-08-01T01:30:03;5.97;;;1.63;;
71095;SDS011;58753;49.440;11.126;2023-08-01T01:32:30;3.30;;;1.70;;
71095;SDS011;58753;49.440;11.126;2023-08-01T01:34:58;4.20;;;1.42;;
71095;SDS011;58753;49.440;11.126;2023-08-01T01:37:23;4.70;;;1.47;;
71095;SDS011;58753;49.440;11.126;2023-08-01T01:39:49;5.45;;;1.70;;
71095;SDS011;58753;49.440;11.126;2023-08-01T01:42:17;4.27;;;1.93;;
71095;SDS011;58753;49.440;11.126;2023-08-01T01:44:42;5.93;;;2.08;;
71095;SDS011;58753;49.440;11.126;2023-08-01T01:47:07;7.33;;;2.03;;
71095;SDS011;58753;49.440;11.126;2023-08-01T01:49:33;4.93;;;1.53;;
71095;SDS011;58753;49.440;11.126;2023-08-01T01:51:58;5.10;;;1.80;;
71095;SDS011;58753;49.440;11.126;2023-08-01T01:54:26;5.30;;;2.03;;
71095;SDS011;58753;49.440;11.126;2023-08-01T01:56:56;5.00;;;2.13;;
71095;SDS011;58753;49.440;11.126;2023-08-01T01:59:24;5.03;;;1.50;;
71095;SDS011;58753;49.440;11.126;2023-08-01T02:01:49;4.33;;;2.03;;
71095;SDS011;58753;49.440;11.126;2023-08-01T02:04:14;4.50;;;2.03;;
71095;SDS011;58753;49.440;11.126;2023-08-01T02:06:40;6.20;;;1.70;;
71095;SDS011;58753;49.440;11.126;2023-08-01T02:09:07;4.40;;;1.85;;
71095;SDS011;58753;49.440;11.126;2023-08-01T02:11:33;4.40;;;1.80;;
71095;SDS011;58753;49.440;11.126;2023-08-01T02:13:58;4.17;;;1.97;;
71095;SDS011;58753;49.440;11.126;2023-08-01T02:16:28;4.13;;;1.80;;
71095;SDS011;58753;49.440;11.126;2023-08-01T02:18:53;4.30;;;2.05;;
71095;SDS011;58753;49.440;11.126;2023-08-01T02:21:18;5.03;;;1.80;;
71095;SDS011;58753;49.440;11.126;2023-08-01T02:23:49;4.88;;;2.17;;
71095;SDS011;58753;49.440;11.126;2023-08-01T02:26:14;6.37;;;2.10;;
71095;SDS011;58753;49.440;11.126;2023-08-01T02:28:42;5.47;;;2.08;;
71095;SDS011;58753;49.440;11.126;2023-08-01T02:31:07;8.10;;;1.60;;
71095;SDS011;58753;49.440;11.126;2023-08-01T02:33:35;4.90;;;1.38;;
71095;SDS011;58753;49.440;11.126;2023-08-01T02:36:01;5.77;;;2.00;;
71095;SDS011;58753;49.440;11.126;2023-08-01T02:38:28;5.60;;;1.40;;
71095;SDS011;58753;49.440;11.126;2023-08-01T02:40:56;7.75;;;1.90;;
71095;SDS011;58753;49.440;11.126;2023-08-01T02:43:24;4.33;;;1.70;;
71095;SDS011;58753;49.440;11.126;2023-08-01T02:45:52;3.80;;;1.98;;
71095;SDS011;58753;49.440;11.126;2023-08-01T02:48:20;3.65;;;1.80;;
71095;SDS011;58753;49.440;11.126;2023-08-01T02:50:45;7.72;;;2.03;;
71095;SDS011;58753;49.440;11.126;2023-08-01T02:53:11;4.47;;;1.93;;
71095;SDS011;58753;49.440;11.126;2023-08-01T02:55:38;4.25;;;1.92;;
71095;SDS011;58753;49.440;11.126;2023-08-01T02:58:06;5.65;;;2.03;;
71095;SDS011;58753;49.440;11.126;2023-08-01T03:00:37;6.20;;;1.60;;
71095;SDS011;58753;49.440;11.126;2023-08-01T03:03:03;4.70;;;1.63;;
71095;SDS011;58753;49.440;11.126;2023-08-01T03:05:31;6.38;;;2.20;;
71095;SDS011;58753;49.440;11.126;2023-08-01T03:08:00;5.00;;;2.03;;
71095;SDS011;58753;49.440;11.126;2023-08-01T03:10:25;9.40;;;1.97;;
71095;SDS011;58753;49.440;11.126;2023-08-01T03:12:51;5.20;;;1.63;;
71095;SDS011;58753;49.440;11.126;2023-08-01T03:15:16;4.57;;;1.90;;
71095;SDS011;58753;49.440;11.126;2023-08-01T03:17:41;8.97;;;2.33;;
71095;SDS011;58753;49.440;11.126;2023-08-01T03:20:09;2.88;;;1.60;;
71095;SDS011;58753;49.440;11.126;2023-08-01T03:22:38;5.50;;;1.80;;
71095;SDS011;58753;49.440;11.126;2023-08-01T03:25:06;4.22;;;1.60;;
71095;SDS011;58753;49.440;11.126;2023-08-01T03:27:37;6.78;;;2.05;;
71095;SDS011;58753;49.440;11.126;2023-08-01T03:30:03;3.47;;;1.30;;
71095;SDS011;58753;49.440;11.126;2023-08-01T03:32:36;4.85;;;2.08;;
71095;SDS011;58753;49.440;11.126;2023-08-01T03:35:06;3.42;;;1.67;;
71095;SDS011;58753;49.440;11.126;2023-08-01T03:37:32;5.93;;;1.80;;
71095;SDS011;58753;49.440;11.126;2023-08-01T03:39:57;4.60;;;1.70;;
71095;SDS011;58753;49.440;11.126;2023-08-01T03:42:25;4.90;;;2.05;;
71095;SDS011;58753;49.440;11.126;2023-08-01T03:44:53;6.95;;;2.00;;
71095;SDS011;58753;49.440;11.126;2023-08-01T03:47:23;5.80;;;2.30;;
71095;SDS011;58753;49.440;11.126;2023-08-01T03:49:51;5.30;;;1.60;;
71095;SDS011;58753;49.440;11.126;2023-08-01T03:52:18;7.13;;;1.90;;
71095;SDS011;58753;49.440;11.126;2023-08-01T03:54:44;6.35;;;1.95;;
71095;SDS011;58753;49.440;11.126;2023-08-01T03:57:09;8.20;;;3.07;;
71095;SDS011;58753;49.440;11.126;2023-08-01T03:59:35;6.20;;;1.58;;
71095;SDS011;58753;49.440;11.126;2023-08-01T04:02:01;6.40;;;2.50;;
71095;SDS011;58753;49.440;11.126;2023-08-01T04:04:26;5.90;;;1.90;;
71095;SDS011;58753;49.440;11.126;2023-08-01T04:06:56;5.43;;;1.95;;
71095;SDS011;58753;49.440;11.126;2023-08-01T04:09:23;5.18;;;1.92;;
71095;SDS011;58753;49.440;11.126;2023-08-01T04:11:51;4.37;;;1.90;;
71095;SDS011;58753;49.440;11.126;2023-08-01T04:14:16;4.30;;;1.55;;
71095;SDS011;58753;49.440;11.126;2023-08-01T04:16:42;4.63;;;1.90;;
71095;SDS011;58753;49.440;11.126;2023-08-01T04:19:07;5.70;;;2.00;;
71095;SDS011;58753;49.440;11.126;2023-08-01T04:21:35;9.27;;;2.45;;
71095;SDS011;58753;49.440;11.126;2023-08-01T04:24:08;6.47;;;1.90;;
71095;SDS011;58753;49.440;11.126;2023-08-01T04:26:35;4.70;;;1.87;;
71095;SDS011;58753;49.440;11.126;2023-08-01T04:29:01;3.97;;;1.42;;
71095;SDS011;58753;49.440;11.126;2023-08-01T04:31:29;4.78;;;1.77;;
71095;SDS011;58753;49.440;11.126;2023-08-01T04:33:55;7.80;;;1.80;;
71095;SDS011;58753;49.440;11.126;2023-08-01T04:36:22;6.10;;;2.20;;
71095;SDS011;58753;49.440;11.126;2023-08-01T04:38:50;6.05;;;2.40;;
71095;SDS011;58753;49.440;11.126;2023-08-01T04:41:15;9.53;;;2.03;;
71095;SDS011;58753;49.440;11.126;2023-08-01T04:43:41;5.90;;;1.93;;
71095;SDS011;58753;49.440;11.126;2023-08-01T04:46:08;6.03;;;1.95;;
71095;SDS011;58753;49.440;11.126;2023-08-01T04:48:34;4.80;;;1.77;;
71095;SDS011;58753;49.440;11.126;2023-08-01T04:50:59;4.70;;;1.50;;
71095;SDS011;58753;49.440;11.126;2023-08-01T04:53:24;6.00;;;1.55;;
71095;SDS011;58753;49.440;11.126;2023-08-01T04:55:50;5.10;;;2.00;;
71095;SDS011;58753;49.440;11.126;2023-08-01T04:58:15;4.77;;;1.97;;
71095;SDS011;58753;49.440;11.126;2023-08-01T05:00:41;4.68;;;2.00;;
71095;SDS011;58753;49.440;11.126;2023-08-01T05:03:07;5.47;;;1.83;;
71095;SDS011;58753;49.440;11.126;2023-08-01T05:05:35;5.78;;;1.92;;
71095;SDS011;58753;49.440;11.126;2023-08-01T05:08:00;6.13;;;1.80;;
71095;SDS011;58753;49.440;11.126;2023-08-01T05:10:25;6.47;;;2.42;;
71095;SDS011;58753;49.440;11.126;2023-08-01T05:12:51;4.17;;;1.77;;
71095;SDS011;58753;49.440;11.126;2023-08-01T05:15:18;6.15;;;2.22;;
71095;SDS011;58753;49.440;11.126;2023-08-01T05:17:44;5.83;;;2.23;;
71095;SDS011;58753;49.440;11.126;2023-08-01T05:20:10;3.97;;;1.67;;
71095;SDS011;58753;49.440;11.126;2023-08-01T05:22:39;5.70;;;2.10;;
71095;SDS011;58753;49.440;11.126;2023-08-01T05:25:04;4.90;;;1.50;;
71095;SDS011;58753;49.440;11.126;2023-08-01T05:27:35;6.20;;;2.00;;
71095;SDS011;58753;49.440;11.126;2023-08-01T05:30:03;3.92;;;1.70;;
71095;SDS011;58753;49.440;11.126;2023-08-01T05:32:34;3.38;;;1.40;;
71095;SDS011;58753;49.440;11.126;2023-08-01T05:34:59;11.03;;;1.90;;
71095;SDS011;58753;49.440;11.126;2023-08-01T05:37:27;5.85;;;1.63;;
71095;SDS011;58753;49.440;11.126;2023-08-01T05:39:52;6.53;;;2.03;;
71095;SDS011;58753;49.440;11.126;2023-08-01T05:42:18;4.23;;;2.17;;
71095;SDS011;58753;49.440;11.126;2023-08-01T05:44:46;5.97;;;2.17;;
71095;SDS011;58753;49.440;11.126;2023-08-01T05:47:11;5.40;;;1.87;;
71095;SDS011;58753;49.440;11.126;2023-08-01T05:49:36;6.13;;;1.85;;
71095;SDS011;58753;49.440;11.126;2023-08-01T05:52:02;4.97;;;1.80;;
71095;SDS011;58753;49.440;11.126;2023-08-01T05:54:27;3.73;;;1.63;;
71095;SDS011;58753;49.440;11.126;2023-08-01T05:56:53;5.27;;;1.93;;
71095;SDS011;58753;49.440;11.126;2023-08-01T05:59:19;7.30;;;2.17;;
71095;SDS011;58753;49.440;11.126;2023-08-01T06:01:44;6.40;;;1.95;;
71095;SDS011;58753;49.440;11.126;2023-08-01T06:04:12;5.30;;;1.43;;
71095;SDS011;58753;49.440;11.126;2023-08-01T06:06:38;4.63;;;1.70;;
71095;SDS011;58753;49.440;11.126;2023-08-01T06:09:05;6.55;;;1.88;;
71095;SDS011;58753;49.440;11.126;2023-08-01T06:11:31;6.10;;;1.70;;
71095;SDS011;58753;49.440;11.126;2023-08-01T06:13:58;7.57;;;2.47;;
71095;SDS011;58753;49.440;11.126;2023-08-01T06:16:26;7.40;;;1.63;;
71095;SDS011;58753;49.440;11.126;2023-08-01T06:18:53;6.95;;;2.20;;
71095;SDS011;58753;49.440;11.126;2023-08-01T06:21:18;6.93;;;1.83;;
71095;SDS011;58753;49.440;11.126;2023-08-01T06:23:44;6.40;;;1.80;;
71095;SDS011;58753;49.440;11.126;2023-08-01T06:26:09;3.33;;;1.40;;
71095;SDS011;58753;49.440;11.126;2023-08-01T06:28:35;8.00;;;2.40;;
71095;SDS011;58753;49.440;11.126;2023-08-01T06:31:00;5.07;;;1.97;;
71095;SDS011;58753;49.440;11.126;2023-08-01T06:33:28;5.85;;;2.03;;
71095;SDS011;58753;49.440;11.126;2023-08-01T06:35:55;5.82;;;1.77;;
71095;SDS011;58753;49.440;11.126;2023-08-01T06:38:23;5.53;;;2.05;;
71095;SDS011;58753;49.440;11.126;2023-08-01T06:40:48;4.67;;;1.67;;
71095;SDS011;58753;49.440;11.126;2023-08-01T06:43:14;5.57;;;2.00;;
71095;SDS011;58753;49.440;11.126;2023-08-01T06:45:41;4.75;;;1.55;;
71095;SDS011;58753;49.440;11.126;2023-08-01T06:48:09;5.07;;;2.10;;
71095;SDS011;58753;49.440;11.126;2023-08-01T06:50:34;4.67;;;2.20;;
71095;SDS011;58753;49.440;11.126;2023-08-01T06:53:00;3.97;;;1.65;;
71095;SDS011;58753;49.440;11.126;2023-08-01T06:55:26;6.17;;;1.83;;
71095;SDS011;58753;49.440;11.126;2023-08-01T06:57:55;4.78;;;1.88;;
71095;SDS011;58753;49.440;11.126;2023-08-01T07:00:23;7.93;;;2.37;;
71095;SDS011;58753;49.440;11.126;2023-08-01T07:02:48;4.47;;;1.90;;
71095;SDS011;58753;49.440;11.126;2023-08-01T07:05:16;7.40;;;2.63;;
71095;SDS011;58753;49.440;11.126;2023-08-01T07:07:41;4.33;;;1.67;;
71095;SDS011;58753;49.440;11.126;2023-08-01T07:10:07;6.30;;;1.60;;
71095;SDS011;58753;49.440;11.126;2023-08-01T07:12:35;6.53;;;1.88;;
71095;SDS011;58753;49.440;11.126;2023-08-01T07:15:00;5.07;;;1.97;;
71095;SDS011;58753;49.440;11.126;2023-08-01T07:17:25;4.85;;;1.75;;
71095;SDS011;58753;49.440;11.126;2023-08-01T07:19:53;4.87;;;2.17;;
71095;SDS011;58753;49.440;11.126;2023-08-01T07:22:19;3.50;;;1.50;;
71095;SDS011;58753;49.440;11.126;2023-08-01T07:24:51;5.25;;;2.05;;
71095;SDS011;58753;49.440;11.126;2023-08-01T07:27:17;6.47;;;2.75;;
71095;SDS011;58753;49.440;11.126;2023-08-01T07:29:43;5.73;;;1.93;;
71095;SDS011;58753;49.440;11.126;2023-08-01T07:32:08;5.87;;;1.67;;
71095;SDS011;58753;49.440;11.126;2023-08-01T07:34:33;6.20;;;1.83;;
71095;SDS011;58753;49.440;11.126;2023-08-01T07:36:59;4.90;;;1.75;;
71095;SDS011;58753;49.440;11.126;2023-08-01T07:39:24;4.93;;;2.10;;
71095;SDS011;58753;49.440;11.126;2023-08-01T07:41:50;4.33;;;1.87;;
71095;SDS011;58753;49.440;11.126;2023-08-01T07:44:17;5.50;;;2.72;;
71095;SDS011;58753;49.440;11.126;2023-08-01T07:46:45;8.05;;;2.30;;
71095;SDS011;58753;49.440;11.126;2023-08-01T07:49:10;5.90;;;2.07;;
71095;SDS011;58753;49.440;11.126;2023-08-01T07:51:38;4.63;;;2.00;;
71095;SDS011;58753;49.440;11.126;2023-08-01T07:54:03;6.10;;;2.17;;
71095;SDS011;58753;49.440;11.126;2023-08-01T07:56:31;5.83;;;2.40;;
71095;SDS011;58753;49.440;11.126;2023-08-01T07:58:57;4.45;;;1.73;;
71095;SDS011;58753;49.440;11.126;2023-08-01T08:01:22;7.23;;;2.33;;
71095;SDS011;58753;49.440;11.126;2023-08-01T08:03:50;7.73;;;2.27;;
71095;SDS011;58753;49.440;11.126;2023-08-01T08:06:15;4.45;;;1.75;;
71095;SDS011;58753;49.440;11.126;2023-08-01T08:08:41;8.05;;;2.25;;
71095;SDS011;58753;49.440;11.126;2023-08-01T08:11:09;4.63;;;1.83;;
71095;SDS011;58753;49.440;11.126;2023-08-01T08:13:34;5.18;;;1.92;;
71095;SDS011;58753;49.440;11.126;2023-08-01T08:16:00;7.17;;;1.90;;
71095;SDS011;58753;49.440;11.126;2023-08-01T08:18:25;8.23;;;1.77;;
71095;SDS011;58753;49.440;11.126;2023-08-01T08:20:53;4.88;;;2.13;;
71095;SDS011;58753;49.440;11.126;2023-08-01T08:23:20;5.60;;;2.22;;
71095;SDS011;58753;49.440;11.126;2023-08-01T08:25:46;5.20;;;2.17;;
71095;SDS011;58753;49.440;11.126;2023-08-01T08:28:16;6.47;;;2.88;;
71095;SDS011;58753;49.440;11.126;2023-08-01T08:30:52;8.95;;;2.35;;
71095;SDS011;58753;49.440;11.126;2023-08-01T08:33:19;4.57;;;2.20;;
71095;SDS011;58753;49.440;11.126;2023-08-01T08:35:48;4.22;;;1.83;;
71095;SDS011;58753;49.440;11.126;2023-08-01T08:38:13;3.57;;;1.70;;
71095;SDS011;58753;49.440;11.126;2023-08-01T08:40:40;5.35;;;1.60;;
71095;SDS011;58753;49.440;11.126;2023-08-01T08:43:11;4.63;;;1.80;;
71095;SDS011;58753;49.440;11.126;2023-08-01T08:45:37;4.30;;;1.70;;
71095;SDS011;58753;49.440;11.126;2023-08-01T08:48:09;5.38;;;1.80;;
71095;SDS011;58753;49.440;11.126;2023-08-01T08:50:39;5.70;;;2.22;;
71095;SDS011;58753;49.440;11.126;2023-08-01T08:53:07;4.28;;;1.95;;
71095;SDS011;58753;49.440;11.126;2023-08-01T08:55:40;5.57;;;1.83;;
71095;SDS011;58753;49.440;11.126;2023-08-01T08:58:06;4.43;;;2.28;;
71095;SDS011;58753;49.440;11.126;2023-08-01T09:00:32;5.90;;;2.25;;
71095;SDS011;58753;49.440;11.126;2023-08-01T09:02:58;5.05;;;1.83;;
71095;SDS011;58753;49.440;11.126;2023-08-01T09:05:27;4.00;;;1.92;;
71095;SDS011;58753;49.440;11.126;2023-08-01T09:07:55;5.93;;;2.20;;
71095;SDS011;58753;49.440;11.126;2023-08-01T09:10:23;4.38;;;1.25;;
71095;SDS011;58753;49.440;11.126;2023-08-01T09:12:51;3.95;;;1.20;;
71095;SDS011;58753;49.440;11.126;2023-08-01T09:15:19;5.32;;;1.75;;
71095;SDS011;58753;49.440;11.126;2023-08-01T09:17:48;6.50;;;1.90;;
71095;SDS011;58753;49.440;11.126;2023-08-01T09:20:14;3.72;;;1.38;;
71095;SDS011;58753;49.440;11.126;2023-08-01T09:22:43;4.78;;;1.60;;
71095;SDS011;58753;49.440;11.126;2023-08-01T09:25:09;5.55;;;1.63;;
71095;SDS011;58753;49.440;11.126;2023-08-01T09:27:34;4.20;;;1.80;;
71095;SDS011;58753;49.440;11.126;2023-08-01T09:30:13;4.13;;;1.92;;
71095;SDS011;58753;49.440;11.126;2023-08-01T09:32:50;5.72;;;2.15;;
71095;SDS011;58753;49.440;11.126;2023-08-01T09:35:19;4.00;;;1.80;;
71095;SDS011;58753;49.440;11.126;2023-08-01T09:37:47;5.28;;;2.30;;
71095;SDS011;58753;49.440;11.126;2023-08-01T09:40:15;4.70;;;1.77;;
71095;SDS011;58753;49.440;11.126;2023-08-01T09:42:41;6.03;;;1.83;;
71095;SDS011;58753;49.440;11.126;2023-08-01T09:45:15;4.38;;;1.60;;
71095;SDS011;58753;49.440;11.126;2023-08-01T09:47:44;6.63;;;1.80;;
71095;SDS011;58753;49.440;11.126;2023-08-01T09:50:21;5.15;;;2.38;;
71095;SDS011;58753;49.440;11.126;2023-08-01T09:52:48;5.03;;;1.90;;
71095;SDS011;58753;49.440;11.126;2023-08-01T09:55:19;5.75;;;1.83;;
71095;SDS011;58753;49.440;11.126;2023-08-01T09:57:53;5.32;;;1.88;;
71095;SDS011;58753;49.440;11.126;2023-08-01T10:00:22;5.50;;;1.95;;
71095;SDS011;58753;49.440;11.126;2023-08-01T10:02:49;5.03;;;2.08;;
71095;SDS011;58753;49.440;11.126;2023-08-01T10:05:20;6.40;;;1.50;;
71095;SDS011;58753;49.440;11.126;2023-08-01T10:07:47;4.22;;;1.42;;
71095;SDS011;58753;49.440;11.126;2023-08-01T10:10:15;5.65;;;1.85;;
71095;SDS011;58753;49.440;11.126;2023-08-01T10:12:43;4.90;;;1.92;;
71095;SDS011;58753;49.440;11.126;2023-08-01T10:15:13;4.07;;;1.80;;
71095;SDS011;58753;49.440;11.126;2023-08-01T10:17:40;4.07;;;1.57;;
71095;SDS011;58753;49.440;11.126;2023-08-01T10:20:06;5.60;;;1.95;;
71095;SDS011;58753;49.440;11.126;2023-08-01T10:22:32;5.72;;;2.17;;
71095;SDS011;58753;49.440;11.126;2023-08-01T10:24:58;3.47;;;1.55;;
71095;SDS011;58753;49.440;11.126;2023-08-01T10:27:27;5.55;;;2.08;;
71095;SDS011;58753;49.440;11.126;2023-08-01T10:29:58;10.07;;;1.80;;
71095;SDS011;58753;49.440;11.126;2023-08-01T10:32:31;6.82;;;2.15;;
71095;SDS011;58753;49.440;11.126;2023-08-01T10:34:58;5.63;;;1.75;;
71095;SDS011;58753;49.440;11.126;2023-08-01T10:37:23;4.20;;;1.57;;
71095;SDS011;58753;49.440;11.126;2023-08-01T10:39:56;5.63;;;1.75;;
71095;SDS011;58753;49.440;11.126;2023-08-01T10:42:36;6.38;;;1.90;;
71095;SDS011;58753;49.440;11.126;2023-08-01T10:45:04;4.87;;;2.07;;
71095;SDS011;58753;49.440;11.126;2023-08-01T10:47:30;4.35;;;1.30;;
71095;SDS011;58753;49.440;11.126;2023-08-01T10:49:56;4.72;;;1.70;;
71095;SDS011;58753;49.440;11.126;2023-08-01T10:52:25;4.27;;;1.23;;
71095;SDS011;58753;49.440;11.126;2023-08-01T10:54:59;3.70;;;1.17;;
71095;SDS011;58753;49.440;11.126;2023-08-01T10:57:26;3.33;;;1.33;;
71095;SDS011;58753;49.440;11.126;2023-08-01T10:59:54;3.97;;;1.10;;
71095;SDS011;58753;49.440;11.126;2023-08-01T11:02:24;2.40;;;0.70;;
71095;SDS011;58753;49.440;11.126;2023-08-01T11:05:03;3.17;;;1.48;;
71095;SDS011;58753;49.440;11.126;2023-08-01T11:07:33;4.07;;;1.48;;
71095;SDS011;58753;49.440;11.126;2023-08-01T11:12:39;3.08;;;0.85;;
71095;SDS011;58753;49.440;11.126;2023-08-01T11:15:08;2.67;;;1.00;;
71095;SDS011;58753;49.440;11.126;2023-08-01T11:17:36;4.68;;;1.15;;
71095;SDS011;58753;49.440;11.126;2023-08-01T11:20:07;2.67;;;0.88;;
71095;SDS011;58753;49.440;11.126;2023-08-01T11:22:38;4.85;;;1.27;;
71095;SDS011;58753;49.440;11.126;2023-08-01T11:25:15;3.17;;;1.25;;
71095;SDS011;58753;49.440;11.126;2023-08-01T11:27:40;3.13;;;1.10;;
71095;SDS011;58753;49.440;11.126;2023-08-01T11:30:08;6.25;;;1.63;;
71095;SDS011;58753;49.440;11.126;2023-08-01T11:32:37;3.78;;;1.10;;
71095;SDS011;58753;49.440;11.126;2023-08-01T11:35:03;2.55;;;0.80;;
71095;SDS011;58753;49.440;11.126;2023-08-01T11:37:29;2.60;;;0.73;;
71095;SDS011;58753;49.440;11.126;2023-08-01T11:39:57;2.85;;;0.52;;
71095;SDS011;58753;49.440;11.126;2023-08-01T11:42:24;2.72;;;1.02;;
71095;SDS011;58753;49.440;11.126;2023-08-01T11:44:51;1.63;;;0.60;;
71095;SDS011;58753;49.440;11.126;2023-08-01T11:47:17;4.73;;;0.90;;
71095;SDS011;58753;49.440;11.126;2023-08-01T11:49:48;3.08;;;1.05;;
71095;SDS011;58753;49.440;11.126;2023-08-01T11:52:27;1.77;;;0.45;;
71095;SDS011;58753;49.440;11.126;2023-08-01T11:54:53;4.25;;;0.73;;
71095;SDS011;58753;49.440;11.126;2023-08-01T11:57:22;2.40;;;0.30;;
71095;SDS011;58753;49.440;11.126;2023-08-01T11:59:51;2.08;;;0.90;;
71095;SDS011;58753;49.440;11.126;2023-08-01T12:02:25;1.67;;;0.60;;
71095;SDS011;58753;49.440;11.126;2023-08-01T12:04:54;0.97;;;0.40;;
71095;SDS011;58753;49.440;11.126;2023-08-01T12:07:20;1.27;;;0.50;;
71095;SDS011;58753;49.440;11.126;2023-08-01T12:09:56;1.38;;;0.30;;
71095;SDS011;58753;49.440;11.126;2023-08-01T12:12:28;1.40;;;0.30;;
71095;SDS011;58753;49.440;11.126;2023-08-01T12:14:56;1.17;;;0.30;;
71095;SDS011;58753;49.440;11.126;2023-08-01T12:17:25;1.17;;;0.38;;
71095;SDS011;58753;49.440;11.126;2023-08-01T12:19:55;1.65;;;0.40;;
71095;SDS011;58753;49.440;11.126;2023-08-01T12:22:20;1.13;;;0.40;;
71095;SDS011;58753;49.440;11.126;2023-08-01T12:24:50;1.27;;;0.45;;
71095;SDS011;58753;49.440;11.126;2023-08-01T12:27:16;1.50;;;0.57;;
71095;SDS011;58753;49.440;11.126;2023-08-01T12:29:43;0.88;;;0.30;;
71095;SDS011;58753;49.440;11.126;2023-08-01T12:32:13;1.38;;;0.30;;
71095;SDS011;58753;49.440;11.126;2023-08-01T12:34:41;1.80;;;0.20;;
71095;SDS011;58753;49.440;11.126;2023-08-01T12:37:07;1.33;;;0.70;;
71095;SDS011;58753;49.440;11.126;2023-08-01T12:39:34;1.43;;;0.40;;
71095;SDS011;58753;49.440;11.126;2023-08-01T12:42:02;0.90;;;0.47;;
71095;SDS011;58753;49.440;11.126;2023-08-01T12:44:28;0.88;;;0.40;;
71095;SDS011;58753;49.440;11.126;2023-08-01T12:46:55;1.80;;;0.60;;
71095;SDS011;58753;49.440;11.126;2023-08-01T12:49:21;1.13;;;0.43;;
71095;SDS011;58753;49.440;11.126;2023-08-01T12:51:48;1.40;;;0.43;;
71095;SDS011;58753;49.440;11.126;2023-08-01T12:54:14;0.90;;;0.30;;
71095;SDS011;58753;49.440;11.126;2023-08-01T12:56:39;0.90;;;0.30;;
71095;SDS011;58753;49.440;11.126;2023-08-01T12:59:04;1.00;;;0.40;;
71095;SDS011;58753;49.440;11.126;2023-08-01T13:01:30;1.80;;;0.40;;
71095;SDS011;58753;49.440;11.126;2023-08-01T13:03:55;1.87;;;0.80;;
71095;SDS011;58753;49.440;11.126;2023-08-01T13:06:21;1.47;;;0.30;;
71095;SDS011;58753;49.440;11.126;2023-08-01T13:08:46;1.10;;;0.50;;
71095;SDS011;58753;49.440;11.126;2023-08-01T13:11:12;1.67;;;0.57;;
71095;SDS011;58753;49.440;11.126;2023-08-01T13:13:39;1.13;;;0.30;;
71095;SDS011;58753;49.440;11.126;2023-08-01T13:16:08;1.40;;;0.40;;
71095;SDS011;58753;49.440;11.126;2023-08-01T13:18:36;1.17;;;0.30;;
71095;SDS011;58753;49.440;11.126;2023-08-01T13:21:08;0.73;;;0.30;;
71095;SDS011;58753;49.440;11.126;2023-08-01T13:23:33;0.93;;;0.30;;
71095;SDS011;58753;49.440;11.126;2023-08-01T13:25:59;1.43;;;0.50;;
71095;SDS011;58753;49.440;11.126;2023-08-01T13:28:27;1.70;;;0.30;;
71095;SDS011;58753;49.440;11.126;2023-08-01T13:30:52;1.30;;;0.37;;
71095;SDS011;58753;49.440;11.126;2023-08-01T13:33:18;1.00;;;0.30;;
71095;SDS011;58753;49.440;11.126;2023-08-01T13:35:43;2.00;;;0.63;;
71095;SDS011;58753;49.440;11.126;2023-08-01T13:38:09;1.60;;;0.50;;
71095;SDS011;58753;49.440;11.126;2023-08-01T13:40:37;2.07;;;0.57;;
71095;SDS011;58753;49.440;11.126;2023-08-01T13:43:05;0.65;;;0.20;;
71095;SDS011;58753;49.440;11.126;2023-08-01T13:45:31;1.30;;;0.30;;
71095;SDS011;58753;49.440;11.126;2023-08-01T13:47:56;1.85;;;0.50;;
71095;SDS011;58753;49.440;11.126;2023-08-01T13:50:22;1.87;;;0.60;;
71095;SDS011;58753;49.440;11.126;2023-08-01T13:52:50;0.60;;;0.20;;
71095;SDS011;58753;49.440;11.126;2023-08-01T13:55:15;0.90;;;0.30;;
71095;SDS011;58753;49.440;11.126;2023-08-01T13:57:42;0.73;;;0.30;;
71095;SDS011;58753;49.440;11.126;2023-08-01T14:00:07;1.60;;;0.27;;
71095;SDS011;58753;49.440;11.126;2023-08-01T14:02:33;2.00;;;0.65;;
71095;SDS011;58753;49.440;11.126;2023-08-01T14:04:59;3.73;;;0.40;;
71095;SDS011;58753;49.440;11.126;2023-08-01T14:07:26;3.40;;;0.80;;
71095;SDS011;58753;49.440;11.126;2023-08-01T14:09:51;3.33;;;0.50;;
71095;SDS011;58753;49.440;11.126;2023-08-01T14:12:17;1.02;;;0.32;;
71095;SDS011;58753;49.440;11.126;2023-08-01T14:14:44;1.20;;;0.40;;
71095;SDS011;58753;49.440;11.126;2023-08-01T14:17:09;1.77;;;0.30;;
71095;SDS011;58753;49.440;11.126;2023-08-01T14:19:37;1.15;;;0.50;;
71095;SDS011;58753;49.440;11.126;2023-08-01T14:22:05;2.83;;;0.70;;
71095;SDS011;58753;49.440;11.126;2023-08-01T14:24:33;2.83;;;0.50;;
71095;SDS011;58753;49.440;11.126;2023-08-01T14:26:58;2.85;;;0.47;;
71095;SDS011;58753;49.440;11.126;2023-08-01T14:29:23;1.43;;;0.40;;
71095;SDS011;58753;49.440;11.126;2023-08-01T14:31:50;2.60;;;0.70;;
71095;SDS011;58753;49.440;11.126;2023-08-01T14:34:16;2.73;;;0.40;;
71095;SDS011;58753;49.440;11.126;2023-08-01T14:36:42;0.97;;;0.30;;